createdAt,value
2023-03-10T00:01:50.716Z,95916.81
2023-03-10T00:04:18.385Z,95914.84
2023-03-10T00:06:47.273Z,95920.91
2023-03-10T00:09:14.784Z,95911.69
2023-03-10T00:11:42.393Z,95907.91
2023-03-10T00:14:10.170Z,95907.84
2023-03-10T00:16:37.714Z,95904.75
2023-03-10T00:19:05.335Z,95909.69
2023-03-10T00:21:33.256Z,95896.38
2023-03-10T00:24:02.264Z,95904.78
2023-03-10T00:26:29.939Z,95900.66
2023-03-10T00:28:57.584Z,95889.91
2023-03-10T00:31:27.464Z,95884.47
2023-03-10T00:33:55.975Z,95891.34
2023-03-10T00:36:25.406Z,95892.91
2023-03-10T00:38:55.141Z,95900.47
2023-03-10T00:41:25.945Z,95900.63
2023-03-10T00:43:53.741Z,95901.84
2023-03-10T00:46:21.399Z,95905.97
2023-03-10T00:48:49.315Z,95899.41
2023-03-10T00:51:18.819Z,95902.91
2023-03-10T00:53:47.065Z,95903.69
2023-03-10T00:56:17.123Z,95901.78
2023-03-10T00:58:47.765Z,95899.34
2023-03-10T01:01:17.016Z,95899.16
2023-03-10T01:03:44.821Z,95903.66
2023-03-10T01:06:12.952Z,95902.94
2023-03-10T01:08:40.473Z,95901.00
2023-03-10T01:11:08.169Z,95897.00
2023-03-10T01:13:35.666Z,95902.69
2023-03-10T01:16:05.140Z,95895.81
2023-03-10T01:18:32.785Z,95893.88
2023-03-10T01:21:00.426Z,95895.16
2023-03-10T01:23:28.426Z,95896.38
2023-03-10T01:25:55.921Z,95899.13
2023-03-10T01:28:24.106Z,95891.91
2023-03-10T01:30:51.661Z,95882.31
2023-03-10T01:33:20.804Z,95891.50
2023-03-10T01:35:48.480Z,95888.38
2023-03-10T01:41:01.319Z,95899.97
2023-03-10T01:43:32.256Z,95901.31
2023-03-10T01:46:47.324Z,95899.75
2023-03-10T01:49:30.847Z,95889.41
2023-03-10T01:52:05.138Z,95891.72
2023-03-10T01:54:42.359Z,95891.28
2023-03-10T01:57:13.591Z,95894.22
2023-03-10T01:59:41.750Z,95893.44
2023-03-10T02:02:10.214Z,95886.78
2023-03-10T02:04:43.164Z,95889.28
2023-03-10T02:07:12.980Z,95887.34
2023-03-10T02:09:44.470Z,95888.31
2023-03-10T02:12:14.224Z,95878.13
2023-03-10T02:14:45.341Z,95863.41
2023-03-10T02:17:16.456Z,95868.25
2023-03-10T02:20:01.948Z,95846.97
2023-03-10T02:22:29.736Z,95836.84
2023-03-10T02:25:10.743Z,95826.91
2023-03-10T02:27:40.918Z,95828.69
2023-03-10T02:30:14.369Z,95807.66
2023-03-10T02:32:46.817Z,95796.19
2023-03-10T02:35:15.695Z,95777.09
2023-03-10T02:37:43.382Z,95770.81
2023-03-10T02:40:29.919Z,95763.81
2023-03-10T02:42:59.899Z,95766.81
2023-03-10T02:45:32.201Z,95756.41
2023-03-10T02:47:59.964Z,95759.22
2023-03-10T02:50:35.738Z,95739.41
2023-03-10T02:53:11.749Z,95736.47
2023-03-10T02:55:39.741Z,95745.97
2023-03-10T02:58:10.274Z,95734.38
2023-03-10T03:00:38.648Z,95735.19
2023-03-10T03:03:06.804Z,95725.44
2023-03-10T03:05:34.524Z,95706.72
2023-03-10T03:08:02.156Z,95709.78
2023-03-10T03:10:29.983Z,95707.31
2023-03-10T03:12:57.637Z,95694.50
2023-03-10T03:15:26.733Z,95701.97
2023-03-10T03:17:54.368Z,95694.16
2023-03-10T03:20:21.995Z,95689.84
2023-03-10T03:22:49.508Z,95701.50
2023-03-10T03:25:19.668Z,95705.94
2023-03-10T03:27:48.158Z,95687.72
2023-03-10T03:30:22.092Z,95689.69
2023-03-10T03:32:53.190Z,95684.28
2023-03-10T03:35:23.454Z,95683.38
2023-03-10T03:37:51.193Z,95654.31
2023-03-10T03:40:20.045Z,95643.38
2023-03-10T03:42:49.943Z,95628.28
2023-03-10T03:45:20.367Z,95610.22
2023-03-10T03:47:48.944Z,95599.84
2023-03-10T03:50:19.838Z,95590.28
2023-03-10T03:52:47.810Z,95582.34
2023-03-10T03:55:17.382Z,95568.13
2023-03-10T03:57:45.294Z,95562.19
2023-03-10T04:00:17.812Z,95543.09
2023-03-10T04:02:45.829Z,95537.84
2023-03-10T04:05:13.687Z,95532.97
2023-03-10T04:07:44.393Z,95520.97
2023-03-10T04:10:14.989Z,95518.47
2023-03-10T04:12:42.583Z,95501.28
2023-03-10T04:15:10.933Z,95500.25
2023-03-10T04:17:38.878Z,95508.53
2023-03-10T04:20:08.988Z,95521.84
2023-03-10T04:22:37.272Z,95537.22
2023-03-10T04:25:08.318Z,95552.97
2023-03-10T04:27:36.584Z,95552.38
2023-03-10T04:30:05.687Z,95535.38
2023-03-10T04:32:33.346Z,95499.88
2023-03-10T04:35:01.290Z,95465.81
2023-03-10T04:37:29.085Z,95455.78
2023-03-10T04:39:57.086Z,95442.81
2023-03-10T04:42:26.031Z,95439.47
2023-03-10T04:44:55.098Z,95445.91
2023-03-10T04:47:22.773Z,95444.72
2023-03-10T04:49:50.365Z,95405.75
2023-03-10T04:52:17.948Z,95420.88
2023-03-10T04:54:45.566Z,95421.16
2023-03-10T04:57:13.059Z,95426.28
2023-03-10T04:59:42.097Z,95466.75
2023-03-10T05:02:09.730Z,95508.94
2023-03-10T05:04:37.412Z,95503.50
2023-03-10T05:07:05.364Z,95502.84
2023-03-10T05:09:35.235Z,95515.53
2023-03-10T05:12:03.180Z,95515.53
2023-03-10T05:14:30.808Z,95515.81
2023-03-10T05:16:59.849Z,95546.50
2023-03-10T05:19:27.389Z,95536.22
2023-03-10T05:21:54.982Z,95520.31
2023-03-10T05:24:22.735Z,95532.28
2023-03-10T05:26:50.374Z,95529.00
2023-03-10T05:29:17.989Z,95504.31
2023-03-10T05:31:45.726Z,95492.06
2023-03-10T05:34:15.107Z,95499.59
2023-03-10T05:36:43.534Z,95477.09
2023-03-10T05:39:11.185Z,95472.44
2023-03-10T05:41:38.843Z,95465.47
2023-03-10T05:44:06.950Z,95477.28
2023-03-10T05:46:34.903Z,95500.72
2023-03-10T05:49:02.688Z,95532.28
2023-03-10T05:51:31.730Z,95527.69
2023-03-10T05:53:59.250Z,95534.06
2023-03-10T05:56:26.790Z,95526.25
2023-03-10T05:58:54.397Z,95531.03
2023-03-10T06:01:22.340Z,95533.53
2023-03-10T06:03:50.139Z,95537.44
2023-03-10T06:06:17.753Z,95554.56
2023-03-10T06:08:47.074Z,95547.28
2023-03-10T06:11:14.768Z,95544.50
2023-03-10T06:13:42.964Z,95541.56
2023-03-10T06:16:11.474Z,95562.22
2023-03-10T06:18:39.117Z,95579.69
2023-03-10T06:21:08.284Z,95585.16
2023-03-10T06:23:37.213Z,95565.13
2023-03-10T06:26:08.886Z,95570.97
2023-03-10T06:28:39.292Z,95568.41
2023-03-10T06:31:11.798Z,95564.22
2023-03-10T06:33:39.571Z,95568.78
2023-03-10T06:36:09.592Z,95580.09
2023-03-10T06:38:37.549Z,95596.47
2023-03-10T06:41:07.794Z,95625.00
2023-03-10T06:43:36.368Z,95626.75
2023-03-10T06:46:06.257Z,95642.84
2023-03-10T06:48:35.426Z,95648.75
2023-03-10T06:51:05.759Z,95645.41
2023-03-10T06:53:36.474Z,95633.56
2023-03-10T06:56:07.827Z,95633.56
2023-03-10T06:58:37.048Z,95631.34
2023-03-10T07:01:05.732Z,95621.34
2023-03-10T07:03:33.941Z,95616.41
2023-03-10T07:06:01.560Z,95614.09
2023-03-10T07:08:30.068Z,95607.78
2023-03-10T07:10:57.730Z,95594.53
2023-03-10T07:13:26.600Z,95622.88
2023-03-10T07:15:54.272Z,95625.44
2023-03-10T07:18:21.871Z,95650.22
2023-03-10T07:20:49.469Z,95654.19
2023-03-10T07:23:17.099Z,95652.59
2023-03-10T07:25:44.632Z,95654.44
2023-03-10T07:28:12.326Z,95659.75
2023-03-10T07:30:41.526Z,95659.69
2023-03-10T07:33:09.125Z,95660.09
2023-03-10T07:35:37.425Z,95654.69
2023-03-10T07:38:05.073Z,95651.50
2023-03-10T07:40:33.217Z,95655.81
2023-03-10T07:43:00.952Z,95646.44
2023-03-10T07:45:28.625Z,95663.59
2023-03-10T07:47:57.476Z,95651.72
2023-03-10T07:50:25.418Z,95668.13
2023-03-10T07:52:52.946Z,95679.25
2023-03-10T07:55:20.511Z,95680.50
2023-03-10T07:57:48.165Z,95680.81
2023-03-10T08:00:16.959Z,95702.50
2023-03-10T08:02:44.673Z,95733.25
2023-03-10T08:05:13.662Z,95747.63
2023-03-10T08:07:41.748Z,95760.75
2023-03-10T08:10:11.150Z,95753.22
2023-03-10T08:12:39.304Z,95759.75
2023-03-10T08:15:08.122Z,95753.59
2023-03-10T08:17:35.862Z,95762.28
2023-03-10T08:20:03.790Z,95762.28
2023-03-10T08:22:33.034Z,95768.69
2023-03-10T08:25:00.866Z,95767.88
2023-03-10T08:27:29.245Z,95761.72
2023-03-10T08:29:57.044Z,95758.16
2023-03-10T08:32:24.740Z,95756.22
2023-03-10T08:34:52.495Z,95761.88
2023-03-10T08:37:20.532Z,95761.63
2023-03-10T08:39:49.479Z,95768.50
2023-03-10T08:42:17.188Z,95785.28
2023-03-10T08:44:44.877Z,95782.59
2023-03-10T08:47:12.508Z,95797.81
2023-03-10T08:49:43.869Z,95816.47
2023-03-10T08:52:12.846Z,95822.34
2023-03-10T08:54:40.496Z,95844.09
2023-03-10T08:57:09.657Z,95845.34
2023-03-10T08:59:37.245Z,95876.09
2023-03-10T09:02:05.374Z,95865.09
2023-03-10T09:04:33.244Z,95875.34
2023-03-10T09:07:00.878Z,95868.88
2023-03-10T09:09:28.447Z,95875.66
2023-03-10T09:11:56.163Z,95874.91
2023-03-10T09:14:25.234Z,95873.34
2023-03-10T09:16:52.821Z,95891.13
2023-03-10T09:19:20.411Z,95883.88
2023-03-10T09:21:47.988Z,95877.75
2023-03-10T09:24:15.551Z,95880.09
2023-03-10T09:26:44.870Z,95881.69
2023-03-10T09:29:12.674Z,95892.34
2023-03-10T09:31:41.784Z,95890.38
2023-03-10T09:34:09.889Z,95892.25
2023-03-10T09:36:38.108Z,95894.53
2023-03-10T09:39:05.905Z,95904.44
2023-03-10T09:41:48.637Z,95903.22
2023-03-10T09:44:28.269Z,95909.94
2023-03-10T09:47:16.845Z,95916.09
2023-03-10T09:49:57.895Z,95914.66
2023-03-10T09:52:31.142Z,95922.25
2023-03-10T09:55:03.639Z,95917.69
2023-03-10T09:57:31.268Z,95922.91
2023-03-10T10:00:03.100Z,95921.03
2023-03-10T10:02:36.778Z,95917.38
2023-03-10T10:05:17.509Z,95920.03
2023-03-10T10:07:51.673Z,95910.91
2023-03-10T10:10:26.305Z,95912.91
2023-03-10T10:12:57.983Z,95923.50
2023-03-10T10:15:27.849Z,95938.88
2023-03-10T10:18:18.247Z,95932.28
2023-03-10T10:20:52.959Z,95943.63
2023-03-10T10:23:28.414Z,95949.84
2023-03-10T10:26:02.649Z,95952.22
2023-03-10T10:28:41.384Z,95960.19
2023-03-10T10:31:16.157Z,95956.78
2023-03-10T10:34:19.894Z,95960.31
2023-03-10T10:36:51.168Z,95951.94
2023-03-10T10:39:27.571Z,95948.84
2023-03-10T10:42:13.649Z,95959.59
2023-03-10T10:44:43.808Z,95956.84
2023-03-10T10:47:26.041Z,95968.41
2023-03-10T10:50:08.356Z,95959.22
2023-03-10T10:52:36.124Z,95971.88
2023-03-10T10:55:04.266Z,95966.84
2023-03-10T10:57:33.774Z,95958.88
2023-03-10T11:00:23.375Z,95959.91
2023-03-10T11:02:51.098Z,95948.66
2023-03-10T11:05:23.538Z,95963.41
2023-03-10T11:07:52.518Z,95971.31
2023-03-10T11:10:27.996Z,95980.06
2023-03-10T11:13:06.255Z,95958.75
2023-03-10T11:15:39.741Z,95997.94
2023-03-10T11:18:16.796Z,96005.59
2023-03-10T11:20:54.880Z,96007.22
2023-03-10T11:23:30.753Z,96008.94
2023-03-10T11:26:10.536Z,96016.53
2023-03-10T11:28:52.785Z,96002.22
2023-03-10T11:31:33.944Z,96011.19
2023-03-10T11:34:17.314Z,96032.81
2023-03-10T11:36:59.079Z,96024.47
2023-03-10T11:39:39.078Z,96021.06
2023-03-10T11:42:19.707Z,96032.63
2023-03-10T11:45:01.186Z,96044.84
2023-03-10T11:47:45.243Z,96032.09
2023-03-10T11:50:28.625Z,96046.91
2023-03-10T11:53:03.466Z,96029.00
2023-03-10T11:55:32.086Z,96034.19
2023-03-10T11:58:04.154Z,96049.84
2023-03-10T12:00:38.135Z,96063.84
2023-03-10T12:03:19.315Z,96080.41
2023-03-10T12:05:54.127Z,96088.47
2023-03-10T12:08:28.993Z,96082.47
2023-03-10T12:10:59.549Z,96097.69
2023-03-10T12:13:31.584Z,96103.84
2023-03-10T12:16:02.277Z,96107.66
2023-03-10T12:18:30.133Z,96119.06
2023-03-10T12:21:18.765Z,96120.97
2023-03-10T12:23:49.424Z,96111.78
2023-03-10T12:27:04.124Z,96116.63
2023-03-10T12:29:37.956Z,96122.97
2023-03-10T12:32:29.477Z,96115.31
2023-03-10T12:35:33.068Z,96100.81
2023-03-10T12:38:27.343Z,96115.38
2023-03-10T12:41:00.698Z,96102.03
2023-03-10T12:43:56.770Z,96120.63
2023-03-10T12:46:40.292Z,96093.56
2023-03-10T12:49:32.078Z,96114.38
2023-03-10T12:52:19.154Z,96121.47
2023-03-10T12:55:10.908Z,96146.25
2023-03-10T12:57:50.461Z,96144.38
2023-03-10T13:00:30.243Z,96126.56
2023-03-10T13:03:04.343Z,96160.91
2023-03-10T13:05:35.354Z,96159.38
2023-03-10T13:08:11.510Z,96178.03
2023-03-10T13:10:40.489Z,96171.56
2023-03-10T13:13:16.751Z,96169.56
2023-03-10T13:15:56.787Z,96169.41
2023-03-10T13:18:24.590Z,96167.50
2023-03-10T13:20:54.088Z,96171.94
2023-03-10T13:23:24.162Z,96185.06
2023-03-10T13:25:56.901Z,96198.69
2023-03-10T13:28:28.036Z,96194.00
2023-03-10T13:31:17.472Z,96204.31
2023-03-10T13:33:53.308Z,96208.50
2023-03-10T13:36:29.814Z,96212.84
2023-03-10T13:38:58.172Z,96202.88
2023-03-10T13:41:27.262Z,96196.75
2023-03-10T13:43:56.237Z,96208.00
2023-03-10T13:46:26.821Z,96194.59
2023-03-10T13:48:58.625Z,96202.41
2023-03-10T13:51:30.720Z,96198.63
2023-03-10T13:54:17.534Z,96205.91
2023-03-10T13:56:46.926Z,96207.09
2023-03-10T13:59:21.464Z,96208.66
2023-03-10T14:01:56.965Z,96193.81
2023-03-10T14:04:42.710Z,96201.00
2023-03-10T14:07:12.513Z,96222.28
2023-03-10T14:09:40.615Z,96205.53
2023-03-10T14:12:10.148Z,96222.25
2023-03-10T14:14:39.723Z,96210.41
2023-03-10T14:17:28.459Z,96208.88
2023-03-10T14:19:56.441Z,96200.06
2023-03-10T14:22:33.151Z,96214.09
2023-03-10T14:25:05.708Z,96219.19
2023-03-10T14:27:35.862Z,96211.56
2023-03-10T14:30:21.774Z,96216.44
2023-03-10T14:32:49.886Z,96208.44
2023-03-10T14:35:19.986Z,96213.41
2023-03-10T14:37:47.991Z,96218.38
2023-03-10T14:40:17.036Z,96216.94
2023-03-10T14:42:46.816Z,96229.81
2023-03-10T14:45:26.923Z,96230.09
2023-03-10T14:47:57.413Z,96226.03
2023-03-10T14:50:26.692Z,96227.13
2023-03-10T14:52:54.714Z,96228.25
2023-03-10T14:55:22.283Z,96212.25
2023-03-10T14:57:56.846Z,96212.25
2023-03-10T15:00:27.503Z,96220.28
2023-03-10T15:02:55.174Z,96219.44
2023-03-10T15:05:31.832Z,96219.34
2023-03-10T15:08:05.202Z,96213.28
2023-03-10T15:10:35.782Z,96208.31
2023-03-10T15:13:03.841Z,96199.66
2023-03-10T15:15:38.321Z,96200.78
2023-03-10T15:18:06.988Z,96200.75
2023-03-10T15:20:34.523Z,96215.63
2023-03-10T15:23:02.344Z,96226.59
2023-03-10T15:25:30.068Z,96210.31
2023-03-10T15:27:57.757Z,96207.38
2023-03-10T15:30:28.840Z,96206.34
2023-03-10T15:32:58.006Z,96204.06
2023-03-10T15:35:26.011Z,96208.97
2023-03-10T15:37:53.593Z,96211.22
2023-03-10T15:40:24.080Z,96211.53
2023-03-10T15:42:53.435Z,96217.69
2023-03-10T15:45:21.683Z,96232.91
2023-03-10T15:47:49.485Z,96230.28
2023-03-10T15:50:20.526Z,96239.78
2023-03-10T15:52:49.293Z,96246.66
2023-03-10T15:55:17.500Z,96266.84
2023-03-10T15:57:46.286Z,96270.59
2023-03-10T16:00:15.910Z,96275.81
2023-03-10T16:02:43.646Z,96286.34
2023-03-10T16:05:11.792Z,96290.25
2023-03-10T16:07:40.819Z,96296.78
2023-03-10T16:10:10.782Z,96307.06
2023-03-10T16:12:38.530Z,96318.53
2023-03-10T16:15:11.181Z,96306.31
2023-03-10T16:17:38.865Z,96299.47
2023-03-10T16:20:08.679Z,96295.41
2023-03-10T16:22:41.268Z,96286.66
2023-03-10T16:25:12.423Z,96295.50
2023-03-10T16:27:40.068Z,96297.38
2023-03-10T16:30:09.165Z,96298.91
2023-03-10T16:32:36.868Z,96301.59
2023-03-10T16:35:05.446Z,96314.16
2023-03-10T16:37:33.115Z,96313.72
2023-03-10T16:40:02.205Z,96326.34
2023-03-10T16:42:30.007Z,96330.16
2023-03-10T16:44:57.890Z,96344.25
2023-03-10T16:47:25.600Z,96345.03
2023-03-10T16:49:53.275Z,96337.38
2023-03-10T16:52:21.060Z,96333.56
2023-03-10T16:54:48.830Z,96335.47
2023-03-10T16:57:17.766Z,96319.13
2023-03-10T16:59:45.412Z,96330.56
2023-03-10T17:02:14.183Z,96348.78
2023-03-10T17:04:42.550Z,96335.13
2023-03-10T17:07:10.215Z,96330.53
2023-03-10T17:09:37.887Z,96337.41
2023-03-10T17:12:05.936Z,96323.69
2023-03-10T17:14:35.090Z,96327.47
2023-03-10T17:17:06.550Z,96350.34
2023-03-10T17:19:35.378Z,96350.72
2023-03-10T17:22:03.159Z,96375.09
2023-03-10T17:24:30.792Z,96367.09
2023-03-10T17:26:58.517Z,96375.44
2023-03-10T17:29:26.405Z,96371.25
2023-03-10T17:31:55.463Z,96369.34
2023-03-10T17:34:23.180Z,96384.94
2023-03-10T17:36:50.840Z,96401.31
2023-03-10T17:39:21.261Z,96404.38
2023-03-10T17:41:49.148Z,96393.34
2023-03-10T17:44:17.095Z,96396.00
2023-03-10T17:46:44.643Z,96388.41
2023-03-10T17:49:15.172Z,96379.25
2023-03-10T17:51:43.131Z,96389.16
2023-03-10T17:54:13.286Z,96383.03
2023-03-10T17:56:41.057Z,96390.66
2023-03-10T17:59:10.359Z,96386.50
2023-03-10T18:01:37.970Z,96368.97
2023-03-10T18:04:05.542Z,96393.72
2023-03-10T18:06:36.103Z,96411.25
2023-03-10T18:09:06.370Z,96416.56
2023-03-10T18:11:35.017Z,96414.25
2023-03-10T18:14:03.893Z,96421.84
2023-03-10T18:16:34.100Z,96425.66
2023-03-10T18:19:03.097Z,96432.50
2023-03-10T18:21:31.173Z,96431.75
2023-03-10T18:24:00.345Z,96439.03
2023-03-10T18:26:29.817Z,96457.63
2023-03-10T18:28:57.727Z,96471.28
2023-03-10T18:31:27.510Z,96470.53
2023-03-10T18:33:55.409Z,96451.06
2023-03-10T18:36:23.338Z,96447.53
2023-03-10T18:38:53.291Z,96452.00
2023-03-10T18:41:25.817Z,96452.31
2023-03-10T18:43:53.856Z,96472.81
2023-03-10T18:46:21.726Z,96476.81
2023-03-10T18:48:49.871Z,96471.50
2023-03-10T18:51:17.422Z,96469.16
2023-03-10T18:53:44.921Z,96470.66
2023-03-10T18:56:12.477Z,96479.31
2023-03-10T18:58:41.577Z,96490.59
2023-03-10T19:01:11.307Z,96500.75
2023-03-10T19:03:39.245Z,96506.75
2023-03-10T19:06:08.196Z,96502.81
2023-03-10T19:08:36.133Z,96510.06
2023-03-10T19:11:04.862Z,96510.19
2023-03-10T19:13:32.456Z,96518.25
2023-03-10T19:16:04.822Z,96534.91
2023-03-10T19:18:32.543Z,96541.34
2023-03-10T19:21:00.873Z,96546.28
2023-03-10T19:23:28.751Z,96549.56
2023-03-10T19:25:56.290Z,96551.47
2023-03-10T19:28:23.898Z,96549.66
2023-03-10T19:30:51.437Z,96537.09
2023-03-10T19:33:20.374Z,96549.25
2023-03-10T19:35:47.928Z,96537.47
2023-03-10T19:38:15.693Z,96563.28
2023-03-10T19:40:45.825Z,96565.09
2023-03-10T19:43:13.488Z,96568.06
2023-03-10T19:45:41.057Z,96568.44
2023-03-10T19:48:08.804Z,96564.66
2023-03-10T19:50:37.744Z,96571.63
2023-03-10T19:53:05.621Z,96565.09
2023-03-10T19:55:33.288Z,96573.38
2023-03-10T19:58:01.265Z,96579.50
2023-03-10T20:00:29.040Z,96585.22
2023-03-10T20:02:58.120Z,96606.78
2023-03-10T20:05:27.177Z,96609.22
2023-03-10T20:07:56.061Z,96592.94
2023-03-10T20:10:23.743Z,96583.75
2023-03-10T20:12:51.676Z,96574.66
2023-03-10T20:15:19.703Z,96582.66
2023-03-10T20:17:47.666Z,96565.16
2023-03-10T20:20:17.492Z,96558.69
2023-03-10T20:22:46.499Z,96566.69
2023-03-10T20:25:18.620Z,96569.66
2023-03-10T20:27:48.012Z,96583.72
2023-03-10T20:30:19.357Z,96576.91
2023-03-10T20:32:47.051Z,96580.69
2023-03-10T20:35:15.913Z,96580.28
2023-03-10T20:37:43.703Z,96574.53
2023-03-10T20:40:16.143Z,96570.34
2023-03-10T20:42:43.781Z,96569.94
2023-03-10T20:45:11.999Z,96566.09
2023-03-10T20:47:39.746Z,96580.25
2023-03-10T20:50:09.553Z,96587.78
2023-03-10T20:52:40.034Z,96588.34
2023-03-10T20:55:14.472Z,96594.06
2023-03-10T20:57:43.408Z,96608.50
2023-03-10T21:00:11.940Z,96597.97
2023-03-10T21:02:41.097Z,96603.13
2023-03-10T21:05:09.602Z,96594.25
2023-03-10T21:07:37.230Z,96598.69
2023-03-10T21:10:07.535Z,96606.78
2023-03-10T21:12:35.727Z,96603.94
2023-03-10T21:15:05.973Z,96596.56
2023-03-10T21:17:33.585Z,96602.66
2023-03-10T21:20:01.199Z,96608.59
2023-03-10T21:22:30.262Z,96605.78
2023-03-10T21:24:57.850Z,96604.16
2023-03-10T21:27:25.447Z,96618.25
2023-03-10T21:29:52.996Z,96615.13
2023-03-10T21:32:22.489Z,96615.09
2023-03-10T21:34:50.462Z,96618.06
2023-03-10T21:37:18.216Z,96614.59
2023-03-10T21:39:46.133Z,96616.44
2023-03-10T21:42:15.168Z,96619.00
2023-03-10T21:44:42.690Z,96620.19
2023-03-10T21:47:10.217Z,96614.81
2023-03-10T21:49:39.240Z,96613.47
2023-03-10T21:52:06.911Z,96607.78
2023-03-10T21:54:34.595Z,96620.63
2023-03-10T21:57:02.453Z,96620.78
2023-03-10T21:59:30.047Z,96629.53
2023-03-10T22:01:57.731Z,96631.75
2023-03-10T22:04:25.306Z,96639.03
2023-03-10T22:06:54.224Z,96635.16
2023-03-10T22:09:21.850Z,96627.84
2023-03-10T22:11:49.419Z,96632.56
2023-03-10T22:14:16.962Z,96619.25
2023-03-10T22:16:44.535Z,96632.28
2023-03-10T22:19:12.054Z,96634.53
2023-03-10T22:21:39.576Z,96627.97
2023-03-10T22:24:08.589Z,96622.94
2023-03-10T22:26:36.165Z,96624.38
2023-03-10T22:29:03.673Z,96627.50
2023-03-10T22:31:31.263Z,96622.03
2023-03-10T22:33:58.902Z,96623.19
2023-03-10T22:36:26.457Z,96620.22
2023-03-10T22:38:53.983Z,96614.38
2023-03-10T22:41:22.883Z,96609.13
2023-03-10T22:43:51.030Z,96596.22
2023-03-10T22:46:18.647Z,96592.34
2023-03-10T22:48:46.205Z,96597.13
2023-03-10T22:51:16.248Z,96593.38
2023-03-10T22:53:44.559Z,96582.19
2023-03-10T22:56:12.270Z,96577.09
2023-03-10T22:58:41.209Z,96565.59
2023-03-10T23:01:08.905Z,96553.59
2023-03-10T23:03:36.556Z,96565.13
2023-03-10T23:06:05.688Z,96547.53
2023-03-10T23:08:34.080Z,96548.16
2023-03-10T23:11:01.600Z,96547.94
2023-03-10T23:13:29.268Z,96545.09
2023-03-10T23:15:58.200Z,96551.59
2023-03-10T23:18:25.817Z,96541.69
2023-03-10T23:20:53.332Z,96537.44
2023-03-10T23:23:20.867Z,96525.34
2023-03-10T23:25:50.008Z,96519.00
2023-03-10T23:28:19.434Z,96511.72
2023-03-10T23:30:49.418Z,96534.53
2023-03-10T23:33:20.997Z,96525.53
2023-03-10T23:35:49.572Z,96516.34
2023-03-10T23:38:17.258Z,96515.44
2023-03-10T23:40:44.837Z,96534.13
2023-03-10T23:43:13.230Z,96536.28
2023-03-10T23:45:41.610Z,96523.31
2023-03-10T23:48:13.404Z,96505.31
2023-03-10T23:50:44.178Z,96508.81
2023-03-10T23:53:13.774Z,96499.75
2023-03-10T23:55:44.246Z,96509.38
2023-03-10T23:58:13.047Z,96495.25
